KPZQ METAR Reports


Station name not available
Aug 17, 2019 - 09:55 PM EDT / 2019.08.18 0155 UTC
Wind: Calm:0
Visibility: 10 mile(s):0
Sky conditions: clear
Temperature: 62.2 F (16.8 C)
Dew Point: 60.3 F (15.7 C)
Relative Humidity: 93%
Pressure (altimeter): 29.9 in. Hg (1012 hPa)
ob: KPZQ 180155Z AUTO 00000KT 10SM CLR 17/16 A2990 RMK AO2 T01680157
cycle: 2

 

Rogers City METAR Meteogram

Weather Chart

Nearby METAR Reports

KPZQ - Rogers City, Michigan, USA
Distance from station: SSW 1mi, 2km
Updated: Sat, 17-Aug-2019 9:36pm EDT
Clear
Clear
 Wind from calm
Wind: Calm
Temperature: 63°F , 17°C
Dew Point: 59°F , 15°C
Humidity: 88%
Barometer: 29.89 inHg , 1012.2 hPa
Clouds: Clear
Visibility: 10 miles , 16 km
2019/08/18 01:36 KPZQ 180136Z AUTO 00000KT 10SM CLR 17/15 A2989 RMK AO2 T01670153
KAPN - Alpena, Michigan, USA
Distance from station: SSE 27mi, 43km
Updated: Sat, 17-Aug-2019 9:54pm EDT
Clear
Clear
 Wind from S
Wind: S 5 mph , 7 km/h
Temperature: 66°F , 19°C
Dew Point: 63°F , 17°C
Humidity: 88%
Barometer: 29.91 inHg , 1012.9 hPa
Clouds: Clear
Visibility: 10 miles , 16 km
2019/08/18 01:54 KAPN 180154Z AUTO 18004KT 10SM CLR 19/17 A2991 RMK AO2 SLP125 T01890172
 
KSLH - Cheboygan, Michigan, USA
Distance from station: WNW 38mi, 61km
Updated: Sat, 17-Aug-2019 9:35pm EDT
Clear
Clear
 Wind from calm
Wind: Calm
Temperature: 61°F , 16°C
Dew Point: 59°F , 15°C
Humidity: 94%
Barometer: 29.87 inHg , 1011.5 hPa
Clouds: Clear
Visibility: 10 miles , 16 km
2019/08/18 01:35 KSLH 180135Z AUTO 00000KT 10SM CLR 16/15 A2987 RMK AO2 T01620146
KDRM - Drummond Is, Michigan, USA
Distance from station: N 40mi, 65km
Updated: Sat, 17-Aug-2019 9:38pm EDT
Clear
Clear
 Wind from calm
Wind: Calm
Temperature: 64°F , 18°C
Dew Point: 63°F , 17°C
Humidity: 94%
Barometer: 29.87 inHg , 1011.5 hPa
Clouds: Clear
Visibility: 10 miles , 16 km
2019/08/18 01:38 KDRM 180138Z AUTO 00000KT 10SM CLR 18/17 A2987 RMK AO2 T01770167
 
KPLN - Pellston, Michigan, USA
Distance from station: WNW 49mi, 79km
Updated: Sat, 17-Aug-2019 9:54pm EDT
Clear
Clear
 Wind from calm
Wind: Calm
Temperature: 63°F , 17°C
Dew Point: 61°F , 16°C
Humidity: 94%
Barometer: 29.89 inHg , 1012.2 hPa
Clouds: Clear
Visibility: 10 miles , 16 km
2019/08/18 01:54 KPLN 180154Z AUTO 00000KT 10SM CLR 17/16 A2989 RMK AO2 SLP121 T01720156
KMCD - Mackinac Island, Michigan, USA
Distance from station: NW 50mi, 80km
Updated: Sat, 17-Aug-2019 9:40pm EDT
Partly cloudy
Partly cloudy
 Wind from W
Wind: W 6 mph , 9 km/h
Temperature: 64°F , 18°C
Dew Point: 64°F , 18°C
Humidity: 100%
Barometer: 29.88 inHg , 1011.9 hPa
Clouds: Partly cloudy
Visibility: 10 miles , 16 km
Cloud details: Partly cloudy 10000 ft
2019/08/18 01:40 KMCD 180140Z AUTO 27005KT 10SM SCT100 18/18 A2988 RMK AO2 T01790179